Time;durP1;ratioP1;P1;durP2;ratioP2;P2;SDS_P1;SDS_P2;PMS_P1;PMS_P2;Temp;Humidity;BMP_temperature;BMP_pressure;BME280_temperature;BME280_humidity;BME280_pressure;Samples;Min_cycle;Max_cycle;Signal;HPM_P1;HPM_P2
2024/02/11 00:02:03;;;;;;;;;;;;;;;8.57;89.13;99957.86;106622;1254;60329;-89
2024/02/11 00:04:35;;;;;;;;;;;;;;;8.59;89.09;99961.23;106547;1253;73781;-89
2024/02/11 00:07:11;;;;;;;;;;;;;;;8.65;88.91;99956.90;106431;1253;68333;-89
2024/02/11 00:09:43;;;;;;;;;;;;;;;8.75;87.98;99955.73;106522;1256;71397;-89
2024/02/11 00:12:16;;;;;;;;;;;;;;;8.90;87.04;99960.06;106405;1255;60536;-89
2024/02/11 00:14:48;;;;;;;;;;;;;;;8.97;86.39;99959.92;106630;1253;60530;-90
2024/02/11 00:17:23;;;;;;;;;;;;;;;8.88;86.51;99958.28;106558;1254;72666;-89
2024/02/11 00:19:55;;;;;;;;;;;;;;;8.73;87.41;99956.70;106411;1254;68449;-89
2024/02/11 00:22:28;;;;;;;;;;;;;;;8.56;88.80;99959.34;106541;1254;72791;-82
2024/02/11 00:25:01;;;;;;;;;;;;;;;8.44;89.90;99959.47;106326;1254;60899;-82
2024/02/11 00:27:33;;;;;;;;;;;;;;;8.35;90.68;99966.23;106325;1253;59798;-83
2024/02/11 00:30:07;;;;;;;;;;;;;;;8.39;90.70;99962.25;106441;1254;73875;-82
2024/02/11 00:32:40;;;;;;;;;;;;;;;8.47;90.33;99963.39;106525;1254;68547;-82
2024/02/11 00:35:18;;;;;;;;;;;;;;;8.47;90.30;99957.67;106451;1254;71505;-83
2024/02/11 00:37:46;;;;;;;;;;;;;;;8.50;90.27;99961.16;106539;1253;60484;-82
2024/02/11 00:40:20;;;;;;;;;;;;;;;8.59;89.71;99958.02;106419;1254;60473;-83
2024/02/11 00:42:52;;;;;;;;;;;;;;;8.66;88.98;99953.48;106621;1254;73927;-83
2024/02/11 00:45:29;;;;;;;;;;;;;;;8.60;89.40;99947.66;106268;1254;68588;-83
2024/02/11 00:48:02;;;;;;;;;;;;;;;8.38;90.77;99944.88;106393;1253;71695;-83
2024/02/11 00:50:32;;;;;;;;;;;;;;;8.26;92.18;99943.66;106474;1253;60524;-83
2024/02/11 00:53:06;;;;;;;;;;;;;;;8.29;92.25;99948.83;106311;1254;60377;-82
2024/02/11 00:55:39;;;;;;;;;;;;;;;8.33;91.97;99946.48;106431;1254;73811;-83
2024/02/11 00:58:13;;;;;;;;;;;;;;;8.36;91.82;99946.73;106427;1254;67591;-87
2024/02/11 01:00:45;;;;;;;;;;;;;;;8.41;91.43;99940.59;106488;1254;72765;-83
2024/02/11 01:03:18;;;;;;;;;;;;;;;8.43;91.48;99939.77;106343;1254;61457;-82
2024/02/11 01:05:52;;;;;;;;;;;;;;;8.51;90.97;99941.43;106372;1254;60494;-88
2024/02/11 01:08:25;;;;;;;;;;;;;;;8.59;90.50;99944.40;106702;1254;72987;-88
2024/02/11 01:10:58;;;;;;;;;;;;;;;8.65;90.07;99947.15;106380;1253;67363;-82
2024/02/11 01:13:31;;;;;;;;;;;;;;;8.62;90.08;99947.02;106385;1258;72668;-83
2024/02/11 01:16:04;;;;;;;;;;;;;;;8.71;89.63;99940.64;106432;1254;60843;-88
2024/02/11 01:18:37;;;;;;;;;;;;;;;8.80;88.93;99937.94;106476;1254;59820;-88
2024/02/11 01:21:11;;;;;;;;;;;;;;;8.79;88.89;99937.56;106553;1253;72389;-89
2024/02/11 01:23:44;;;;;;;;;;;;;;;8.73;89.24;99939.05;106392;1254;68406;-87
2024/02/11 01:26:16;;;;;;;;;;;;;;;8.76;89.03;99944.04;106578;1253;71406;-88
2024/02/11 01:28:49;;;;;;;;;;;;;;;8.71;89.54;99951.86;106246;1257;60325;-88
2024/02/11 01:31:22;;;;;;;;;;;;;;;8.71;89.69;99950.45;106390;1254;61499;-83
2024/02/11 01:33:50;;;;;;;;;;;;;;;8.65;90.06;99945.64;106612;1252;74027;-89
2024/02/11 01:36:22;;;;;;;;;;;;;;;8.52;90.99;99941.70;106542;1253;68800;-89
2024/02/11 01:38:56;;;;;;;;;;;;;;;8.56;91.11;99936.30;106367;1254;70596;-88
2024/02/11 01:41:29;;;;;;;;;;;;;;;8.53;90.94;99932.49;106449;1252;60408;-89
2024/02/11 01:44:02;;;;;;;;;;;;;;;8.50;91.33;99937.52;106523;1254;60508;-88
2024/02/11 01:46:38;;;;;;;;;;;;;;;8.55;90.90;99935.26;106356;1255;73825;-82
2024/02/11 01:49:10;;;;;;;;;;;;;;;8.56;90.69;99937.27;106289;1253;68375;-88
2024/02/11 01:51:43;;;;;;;;;;;;;;;8.58;90.31;99943.75;106207;1259;73323;-89
2024/02/11 01:54:16;;;;;;;;;;;;;;;8.67;89.53;99941.41;106406;1256;60450;-87
2024/02/11 01:56:50;;;;;;;;;;;;;;;8.67;89.47;99939.19;106421;1254;60345;-82
2024/02/11 01:59:23;;;;;;;;;;;;;;;8.71;89.14;99939.94;106419;1253;72560;-88
2024/02/11 02:01:57;;;;;;;;;;;;;;;8.73;89.16;99946.84;106478;1254;66915;-82
2024/02/11 02:04:31;;;;;;;;;;;;;;;8.71;89.28;99951.10;106330;1258;72657;-83
2024/02/11 02:07:04;;;;;;;;;;;;;;;8.74;89.24;99948.91;106459;1253;60872;-82
2024/02/11 02:09:37;;;;;;;;;;;;;;;8.75;88.95;99947.59;106367;1254;60339;-88
2024/02/11 16:13:03;;;;;;;;;;;;;;;9.77;100.00;99825.35;106406;1257;74837;-88
2024/02/11 16:15:43;;;;;;;;;;;;;;;9.63;100.00;99822.49;106516;1254;70589;-87
2024/02/11 16:18:23;;;;;;;;;;;;;;;9.65;100.00;99825.38;106376;1254;75219;-89
2024/02/11 16:20:57;;;;;;;;;;;;;;;9.56;100.00;99829.17;106496;1253;60463;-89
2024/02/11 16:23:30;;;;;;;;;;;;;;;9.68;100.00;99836.08;106412;1254;60881;-88
2024/02/11 16:26:10;;;;;;;;;;;;;;;9.79;100.00;99837.83;106419;1254;74985;-88
2024/02/11 16:28:50;;;;;;;;;;;;;;;9.73;100.00;99832.38;106468;1254;69699;-88
2024/02/11 16:31:30;;;;;;;;;;;;;;;9.70;100.00;99833.01;106491;1253;74690;-87
2024/02/11 16:34:05;;;;;;;;;;;;;;;9.86;100.00;99830.11;106460;1258;61225;-87
2024/02/11 16:36:42;;;;;;;;;;;;;;;9.92;100.00;99825.02;106772;1254;61545;-88
2024/02/11 16:39:16;;;;;;;;;;;;;;;9.88;100.00;99828.95;106442;1253;75484;-88
2024/02/11 16:41:50;;;;;;;;;;;;;;;9.73;100.00;99832.54;106300;1257;70179;-88
2024/02/11 16:44:18;;;;;;;;;;;;;;;9.74;100.00;99825.33;106211;1260;72033;-88
2024/02/11 16:46:52;;;;;;;;;;;;;;;9.77;100.00;99821.80;106425;1256;61159;-88
2024/02/11 16:49:26;;;;;;;;;;;;;;;9.69;100.00;99815.23;106285;1256;60532;-88
2024/02/11 16:52:01;;;;;;;;;;;;;;;9.58;100.00;99815.58;106279;1256;73523;-88
2024/02/11 16:54:29;;;;;;;;;;;;;;;9.60;100.00;99815.54;106339;1260;71119;-88
2024/02/11 16:57:02;;;;;;;;;;;;;;;9.58;100.00;99824.52;106011;1256;73842;-85
2024/02/11 16:59:37;;;;;;;;;;;;;;;9.61;100.00;99824.64;106344;1256;61849;-86
2024/02/11 17:02:13;;;;;;;;;;;;;;;9.58;100.00;99829.80;106439;1256;60664;-87
2024/02/11 17:04:49;;;;;;;;;;;;;;;9.68;100.00;99830.62;106371;1256;76104;-87
2024/02/11 17:07:24;;;;;;;;;;;;;;;9.70;100.00;99826.77;106354;1255;69225;-88
2024/02/11 17:09:58;;;;;;;;;;;;;;;9.94;100.00;99819.39;106339;1256;74158;-87
2024/02/11 17:12:34;;;;;;;;;;;;;;;9.80;100.00;99818.27;106411;1256;62368;-87
2024/02/11 17:15:02;;;;;;;;;;;;;;;9.78;100.00;99823.86;106161;1256;62149;-88
2024/02/11 17:17:36;;;;;;;;;;;;;;;9.83;100.00;99821.23;106377;1259;74923;-88
2024/02/11 17:20:22;;;;;;;;;;;;;;;9.80;100.00;99821.60;106344;1255;69408;-88
2024/02/11 17:22:53;;;;;;;;;;;;;;;9.84;100.00;99810.91;106334;1256;73177;-88
2024/02/11 17:25:28;;;;;;;;;;;;;;;9.90;100.00;99809.54;106518;1256;61717;-88
2024/02/11 17:28:02;;;;;;;;;;;;;;;9.91;100.00;99808.61;106222;1254;60912;-88
2024/02/11 17:30:36;;;;;;;;;;;;;;;9.95;100.00;99805.61;106337;1255;75741;-87
2024/02/11 17:33:04;;;;;;;;;;;;;;;9.97;100.00;99804.94;106378;1255;70652;-87
2024/02/11 17:35:38;;;;;;;;;;;;;;;9.98;100.00;99802.08;106375;1256;73701;-88
2024/02/11 17:38:18;;;;;;;;;;;;;;;9.94;100.00;99805.08;106322;1256;61189;-87
2024/02/11 17:40:51;;;;;;;;;;;;;;;10.08;100.00;99799.84;106301;1259;60932;-87
2024/02/11 17:43:19;;;;;;;;;;;;;;;10.04;100.00;99792.34;106434;1257;76395;-86
2024/02/11 17:45:56;;;;;;;;;;;;;;;9.99;100.00;99788.77;106523;1254;68666;-87
2024/02/11 17:48:39;;;;;;;;;;;;;;;10.04;100.00;99780.98;106337;1254;72758;-87
2024/02/11 17:51:18;;;;;;;;;;;;;;;10.07;100.00;99783.30;106544;1253;63182;-87
2024/02/11 17:53:52;;;;;;;;;;;;;;;10.20;100.00;99784.67;106486;1253;61433;-87
2024/02/11 17:56:33;;;;;;;;;;;;;;;10.23;100.00;99784.73;106488;1258;75424;-87
2024/02/11 17:59:14;;;;;;;;;;;;;;;10.25;100.00;99783.04;106336;1254;70689;-87
2024/02/11 18:01:48;;;;;;;;;;;;;;;10.20;100.00;99781.67;106670;1253;72662;-85
2024/02/11 18:04:22;;;;;;;;;;;;;;;10.26;100.00;99776.18;106412;1259;62069;-86
2024/02/11 18:07:02;;;;;;;;;;;;;;;10.26;100.00;99775.64;106712;1253;60348;-86
2024/02/11 18:09:42;;;;;;;;;;;;;;;10.31;100.00;99776.41;106487;1259;76100;-85
2024/02/11 18:12:16;;;;;;;;;;;;;;;10.41;100.00;99771.36;106446;1259;69012;-87
2024/02/11 18:14:50;;;;;;;;;;;;;;;10.40;100.00;99772.05;106524;1254;74645;-85
2024/02/11 18:17:31;;;;;;;;;;;;;;;10.44;100.00;99772.25;106411;1254;61864;-86
2024/02/11 18:20:11;;;;;;;;;;;;;;;10.49;100.00;99772.77;106359;1254;61383;-86
2024/02/11 18:22:45;;;;;;;;;;;;;;;10.47;100.00;99770.62;106458;1254;76154;-86
2024/02/11 18:25:14;;;;;;;;;;;;;;;10.46;100.00;99767.74;106487;1258;70528;-86
2024/02/11 18:28:08;;;;;;;;;;;;;;;10.31;100.00;99768.70;106488;1254;72773;-86
2024/02/11 18:30:42;;;;;;;;;;;;;;;10.23;100.00;99769.98;106428;1254;61736;-86
2024/02/11 18:33:16;;;;;;;;;;;;;;;10.18;100.00;99770.01;106425;1253;61277;-87
2024/02/11 18:35:45;;;;;;;;;;;;;;;10.20;100.00;99767.47;106518;1252;73102;-86
2024/02/11 18:38:19;;;;;;;;;;;;;;;10.27;100.00;99766.63;106462;1254;69419;-86
2024/02/11 18:40:53;;;;;;;;;;;;;;;10.21;100.00;99766.47;106473;1254;72999;-86
2024/02/11 18:43:27;;;;;;;;;;;;;;;10.17;100.00;99771.92;106486;1254;62307;-86
2024/02/11 18:45:54;;;;;;;;;;;;;;;10.23;100.00;99770.88;106485;1254;61760;-86
2024/02/11 18:48:29;;;;;;;;;;;;;;;10.23;100.00;99767.58;106569;1256;74613;-87
2024/02/11 18:51:09;;;;;;;;;;;;;;;10.09;100.00;99758.33;106406;1259;71008;-87
2024/02/11 18:53:43;;;;;;;;;;;;;;;10.07;100.00;99754.11;106396;1253;73808;-87
2024/02/11 18:56:10;;;;;;;;;;;;;;;10.20;100.00;99750.09;106479;1255;61442;-86
2024/02/11 18:58:44;;;;;;;;;;;;;;;10.22;100.00;99750.18;106584;1254;60916;-86
2024/02/11 19:01:18;;;;;;;;;;;;;;;10.19;100.00;99745.53;106652;1253;75921;-86
2024/02/11 19:03:45;;;;;;;;;;;;;;;10.13;100.00;99743.81;106753;1259;69091;-86
2024/02/11 19:06:25;;;;;;;;;;;;;;;10.18;100.00;99744.88;106466;1253;74077;-86
2024/02/11 19:09:06;;;;;;;;;;;;;;;10.27;100.00;99745.21;106324;1254;60543;-85
2024/02/11 19:11:42;;;;;;;;;;;;;;;10.29;100.00;99749.08;106323;1253;60755;-88
2024/02/11 19:14:10;;;;;;;;;;;;;;;10.19;100.00;99754.77;106383;1254;75948;-88
2024/02/11 19:16:44;;;;;;;;;;;;;;;10.33;100.00;99756.02;106647;1258;68868;-87
2024/02/11 19:19:24;;;;;;;;;;;;;;;10.39;100.00;99753.91;106476;1254;74583;-88
2024/02/11 19:22:04;;;;;;;;;;;;;;;10.31;100.00;99754.19;106485;1255;62276;-88
2024/02/11 19:24:55;;;;;;;;;;;;;;;10.33;100.00;99753.23;106412;1254;60746;-89
2024/02/11 19:27:35;;;;;;;;;;;;;;;10.31;100.00;99750.36;106766;1254;74953;-88
2024/02/11 19:30:15;;;;;;;;;;;;;;;10.23;100.00;99755.24;106826;1253;70110;-86
2024/02/11 19:32:55;;;;;;;;;;;;;;;10.37;99.98;99751.97;106755;1258;74250;-87
2024/02/11 19:35:24;;;;;;;;;;;;;;;10.39;99.99;99747.96;106667;1254;60453;-87
2024/02/11 19:38:04;;;;;;;;;;;;;;;10.52;99.03;99746.41;106640;1256;62363;-86
2024/02/11 19:40:45;;;;;;;;;;;;;;;10.42;99.37;99751.13;106340;1254;76564;-86
2024/02/11 19:43:26;;;;;;;;;;;;;;;10.30;99.96;99753.42;106882;1253;68509;-86
2024/02/11 19:45:54;;;;;;;;;;;;;;;10.22;100.00;99755.32;106594;1259;74713;-87
2024/02/11 19:48:35;;;;;;;;;;;;;;;10.18;100.00;99755.05;106309;1258;63685;-85
2024/02/11 19:51:15;;;;;;;;;;;;;;;10.23;100.00;99751.60;106440;1254;61907;-87
2024/02/11 19:53:49;;;;;;;;;;;;;;;10.22;100.00;99746.91;106546;1254;73375;-86
2024/02/11 19:56:23;;;;;;;;;;;;;;;10.45;100.00;99743.73;106438;1259;69794;-86
2024/02/11 19:59:05;;;;;;;;;;;;;;;10.36;100.00;99738.21;106483;1253;74582;-85
2024/02/11 20:01:46;;;;;;;;;;;;;;;10.21;100.00;99738.89;106511;1254;63008;-87
2024/02/11 20:04:20;;;;;;;;;;;;;;;10.22;100.00;99741.56;106449;1259;60854;-88
2024/02/11 20:06:54;;;;;;;;;;;;;;;10.18;100.00;99740.57;106447;1259;74178;-87
2024/02/11 20:09:38;;;;;;;;;;;;;;;10.21;100.00;99742.29;106640;1254;70710;-86
2024/02/11 20:12:20;;;;;;;;;;;;;;;10.23;100.00;99740.79;106366;1254;72660;-86
2024/02/11 20:14:54;;;;;;;;;;;;;;;10.23;100.00;99744.65;106287;1253;60540;-87
2024/02/11 20:17:28;;;;;;;;;;;;;;;10.15;100.00;99745.73;106464;1258;60919;-87
2024/02/11 20:20:12;;;;;;;;;;;;;;;10.18;100.00;99745.48;106527;1258;79244;-87
2024/02/11 20:22:54;;;;;;;;;;;;;;;10.19;100.00;99752.63;106531;1259;68690;-87
2024/02/11 20:25:28;;;;;;;;;;;;;;;10.27;100.00;99748.16;106488;1254;73652;-87
2024/02/11 20:28:03;;;;;;;;;;;;;;;10.21;100.00;99749.71;106385;1254;61072;-86
2024/02/11 20:30:43;;;;;;;;;;;;;;;10.27;100.00;99745.16;106557;1258;60722;-87
2024/02/11 20:33:25;;;;;;;;;;;;;;;10.33;100.00;99740.50;106372;1254;74930;-86
2024/02/11 20:36:00;;;;;;;;;;;;;;;10.31;100.00;99739.10;106692;1256;70461;-87
2024/02/11 20:38:35;;;;;;;;;;;;;;;10.20;100.00;99730.45;106450;1254;73840;-88
2024/02/11 20:41:15;;;;;;;;;;;;;;;10.22;100.00;99733.41;106418;1253;60546;-88
2024/02/11 20:43:55;;;;;;;;;;;;;;;10.13;100.00;99736.27;106428;1253;60466;-87
2024/02/11 20:46:22;;;;;;;;;;;;;;;10.05;100.00;99736.16;106434;1258;74482;-88
2024/02/11 20:49:03;;;;;;;;;;;;;;;10.03;100.00;99739.84;106520;1254;69726;-88
2024/02/11 20:51:43;;;;;;;;;;;;;;;10.12;100.00;99739.13;106517;1254;74585;-87
2024/02/11 20:54:17;;;;;;;;;;;;;;;10.15;100.00;99742.69;106510;1254;61972;-87
2024/02/11 20:56:50;;;;;;;;;;;;;;;10.23;100.00;99744.98;106623;1254;60527;-86
2024/02/11 20:59:30;;;;;;;;;;;;;;;10.24;100.00;99740.83;106471;1254;73132;-88
2024/02/11 21:02:10;;;;;;;;;;;;;;;10.29;100.00;99740.05;106439;1256;67432;-87
2024/02/11 21:04:44;;;;;;;;;;;;;;;10.24;100.00;99739.95;106480;1254;72894;-87
2024/02/11 21:07:19;;;;;;;;;;;;;;;10.27;100.00;99744.77;106453;1254;61820;-86
2024/02/11 21:09:59;;;;;;;;;;;;;;;10.25;100.00;99743.65;106489;1253;62616;-86
2024/02/11 21:12:43;;;;;;;;;;;;;;;10.23;100.00;99738.91;106451;1254;73612;-87
2024/02/11 21:15:18;;;;;;;;;;;;;;;10.25;100.00;99734.96;106638;1254;68626;-87
2024/02/11 21:17:52;;;;;;;;;;;;;;;10.30;100.00;99735.08;106801;1259;73859;-86
2024/02/11 21:20:32;;;;;;;;;;;;;;;10.30;100.00;99728.14;106578;1253;61236;-84
2024/02/11 21:23:13;;;;;;;;;;;;;;;10.19;100.00;99728.60;106424;1258;60371;-86
2024/02/11 21:25:48;;;;;;;;;;;;;;;10.12;100.00;99724.98;106770;1254;74687;-85
2024/02/11 21:28:22;;;;;;;;;;;;;;;10.00;100.00;99728.73;106589;1256;67239;-86
2024/02/11 21:31:02;;;;;;;;;;;;;;;9.97;100.00;99729.71;106502;1255;73699;-86
2024/02/11 21:33:58;;;;;;;;;;;;;;;9.97;100.00;99735.84;106422;1253;60457;-85
2024/02/11 21:36:38;;;;;;;;;;;;;;;9.97;100.00;99732.02;106613;1254;60595;-85
2024/02/11 21:39:06;;;;;;;;;;;;;;;9.92;100.00;99728.70;106462;1252;72590;-84
2024/02/11 21:41:46;;;;;;;;;;;;;;;9.95;100.00;99727.52;106921;1256;68506;-85
2024/02/11 21:44:25;;;;;;;;;;;;;;;10.01;100.00;99717.16;106496;1256;72722;-86
2024/02/11 21:46:59;;;;;;;;;;;;;;;9.94;100.00;99703.02;106639;1254;60484;-86
2024/02/11 21:49:33;;;;;;;;;;;;;;;9.94;100.00;99697.06;106920;1256;60492;-85
2024/02/11 21:52:14;;;;;;;;;;;;;;;9.83;100.00;99701.56;106355;1258;72615;-85
2024/02/11 21:54:55;;;;;;;;;;;;;;;9.79;100.00;99706.26;106474;1254;68430;-85
2024/02/11 21:57:29;;;;;;;;;;;;;;;9.72;100.00;99705.30;106521;1254;73200;-85
2024/02/11 22:00:09;;;;;;;;;;;;;;;9.95;100.00;99710.58;106470;1254;60450;-85
2024/02/11 22:02:53;;;;;;;;;;;;;;;10.10;100.00;99714.75;106376;1254;60306;-84
2024/02/11 22:05:33;;;;;;;;;;;;;;;10.04;100.00;99720.33;106605;1254;73843;-87
2024/02/11 22:08:07;;;;;;;;;;;;;;;10.12;100.00;99719.91;106364;1258;67714;-87
2024/02/11 22:10:41;;;;;;;;;;;;;;;10.20;100.00;99715.38;106549;1254;71438;-88
2024/02/11 22:13:21;;;;;;;;;;;;;;;10.03;100.00;99708.40;106433;1254;60465;-88
2024/02/11 22:16:00;;;;;;;;;;;;;;;9.98;100.00;99708.91;106586;1259;59623;-88
2024/02/11 22:18:35;;;;;;;;;;;;;;;10.07;100.00;99716.36;106470;1254;74297;-88
2024/02/11 22:21:09;;;;;;;;;;;;;;;10.18;100.00;99715.66;106788;1259;68317;-85
2024/02/11 22:23:49;;;;;;;;;;;;;;;10.29;100.00;99715.92;106784;1257;72648;-85
2024/02/11 22:26:29;;;;;;;;;;;;;;;10.26;100.00;99720.42;106437;1256;60476;-85
2024/02/11 22:29:07;;;;;;;;;;;;;;;10.15;100.00;99719.98;106336;1258;60601;-86
2024/02/11 22:31:44;;;;;;;;;;;;;;;10.22;100.00;99719.02;106400;1254;73886;-86
2024/02/11 22:34:24;;;;;;;;;;;;;;;10.33;100.00;99727.87;106479;1254;68804;-86
2024/02/11 22:37:04;;;;;;;;;;;;;;;10.23;100.00;99731.50;106446;1254;71663;-86
2024/02/11 22:39:38;;;;;;;;;;;;;;;10.21;100.00;99733.17;106351;1258;61151;-85
2024/02/11 22:42:12;;;;;;;;;;;;;;;10.28;100.00;99726.96;106427;1258;61176;-85
2024/02/11 22:44:52;;;;;;;;;;;;;;;10.29;99.46;99725.37;106527;1254;73984;-86
2024/02/11 22:47:32;;;;;;;;;;;;;;;10.10;99.81;99718.58;106360;1254;67099;-85
2024/02/11 22:50:08;;;;;;;;;;;;;;;9.99;99.25;99717.90;106422;1256;72654;-85
2024/02/11 22:52:42;;;;;;;;;;;;;;;10.00;98.34;99725.14;106429;1254;60856;-87
2024/02/11 22:55:22;;;;;;;;;;;;;;;9.95;98.53;99725.48;106461;1253;60591;-86
2024/02/11 22:58:02;;;;;;;;;;;;;;;10.03;98.13;99725.00;106339;1254;73818;-87
2024/02/11 23:03:12;;;;;;;;;;;;;;;10.01;98.57;99726.12;106429;1257;72656;-86
2024/02/11 23:05:52;;;;;;;;;;;;;;;9.98;99.23;99723.48;106484;1258;60482;-83
2024/02/11 23:08:32;;;;;;;;;;;;;;;9.98;99.11;99725.11;106451;1254;60566;-83
2024/02/11 23:11:07;;;;;;;;;;;;;;;10.02;98.85;99719.55;106476;1257;73824;-87
2024/02/11 23:13:35;;;;;;;;;;;;;;;9.98;98.67;99714.14;106177;1254;68814;-86
2024/02/11 23:16:09;;;;;;;;;;;;;;;9.95;98.44;99712.73;106242;1258;72707;-87
2024/02/11 23:18:43;;;;;;;;;;;;;;;9.99;97.69;99714.02;106547;1254;60427;-86
2024/02/11 23:21:18;;;;;;;;;;;;;;;9.92;98.12;99717.16;106433;1259;60444;-83
2024/02/11 23:23:46;;;;;;;;;;;;;;;9.87;98.69;99717.17;106539;1257;72588;-83
2024/02/11 23:26:20;;;;;;;;;;;;;;;9.85;99.03;99715.08;106422;1256;67231;-83
2024/02/11 23:28:54;;;;;;;;;;;;;;;9.80;99.71;99715.09;106276;1254;72646;-83
2024/02/11 23:31:29;;;;;;;;;;;;;;;9.76;100.00;99718.95;106321;1259;60518;-82
2024/02/11 23:33:56;;;;;;;;;;;;;;;9.64;100.00;99714.58;106300;1254;60337;-86
2024/02/11 23:36:31;;;;;;;;;;;;;;;9.69;100.00;99713.42;106330;1256;73912;-86
2024/02/11 23:39:06;;;;;;;;;;;;;;;9.65;100.00;99713.73;106570;1254;69434;-86
2024/02/11 23:41:36;;;;;;;;;;;;;;;9.58;100.00;99715.39;106444;1259;72792;-86
2024/02/11 23:44:16;;;;;;;;;;;;;;;9.60;100.00;99714.29;106506;1254;60511;-86
2024/02/11 23:46:50;;;;;;;;;;;;;;;9.55;100.00;99718.66;106457;1254;60540;-83
2024/02/11 23:49:24;;;;;;;;;;;;;;;9.68;100.00;99715.71;106388;1253;72908;-83
2024/02/11 23:51:53;;;;;;;;;;;;;;;9.75;99.92;99711.16;106480;1254;68382;-83
2024/02/11 23:54:27;;;;;;;;;;;;;;;9.62;100.00;99705.55;106258;1254;72796;-86
2024/02/11 23:57:02;;;;;;;;;;;;;;;9.66;99.85;99707.23;106457;1256;60510;-86
2024/02/11 23:59:36;;;;;;;;;;;;;;;9.47;99.87;99716.13;106336;1254;60300;-86
